Time;durP1;ratioP1;P1;durP2;ratioP2;P2;SDS_P1;SDS_P2;PMS_P1;PMS_P2;Temp;Humidity;BMP_temperature;BMP_pressure;BME280_temperature;BME280_humidity;BME280_pressure;Samples;Min_cycle;Max_cycle;Signal;HPM_P1;HPM_P2
2023/03/16 00:00:46;;;;;;;100.47;32.40;;;;;;;;;;4924275;29;20043;-47
2023/03/16 00:03:18;;;;;;;111.13;30.42;;;;;;;;;;4921564;29;20040;-46
2023/03/16 00:05:53;;;;;;;124.50;30.67;;;;;;;;;;4921533;29;20494;-48
2023/03/16 00:08:20;;;;;;;117.50;29.45;;;;;;;;;;4921009;29;20044;-45
2023/03/16 00:10:47;;;;;;;131.32;29.42;;;;;;;;;;4927123;29;20044;-46
2023/03/16 00:13:17;;;;;;;99.40;30.05;;;;;;;;;;4927187;29;20439;-47
2023/03/16 00:15:50;;;;;;;114.97;27.98;;;;;;;;;;4920068;29;20038;-45
2023/03/16 00:18:17;;;;;;;;;;;;;;;;;;4923534;29;20035;-45
2023/03/16 00:20:43;;;;;;;102.75;26.50;;;;;;;;;;4921914;29;19929;-46
2023/03/16 00:23:10;;;;;;;104.68;28.30;;;;;;;;;;4923014;29;20052;-45
2023/03/16 00:25:37;;;;;;;124.10;30.15;;;;;;;;;;4919564;29;20040;-45
2023/03/16 00:28:03;;;;;;;101.97;30.40;;;;;;;;;;4921446;29;20050;-45
2023/03/16 00:30:31;;;;;;;94.78;29.90;;;;;;;;;;4921680;29;20040;-45
2023/03/16 00:32:58;;;;;;;110.22;29.58;;;;;;;;;;4923577;29;20047;-46
2023/03/16 00:35:24;;;;;;;195.95;34.60;;;;;;;;;;4917104;29;21097;-52
2023/03/16 00:37:51;;;;;;;145.82;34.00;;;;;;;;;;4917261;29;20055;-54
2023/03/16 00:40:17;;;;;;;108.50;29.65;;;;;;;;;;4919494;29;20048;-57
2023/03/16 00:42:44;;;;;;;98.13;28.20;;;;;;;;;;4935512;29;20119;-53
2023/03/16 00:45:10;;;;;;;104.15;29.95;;;;;;;;;;4925015;29;20154;-56
2023/03/16 00:47:37;;;;;;;124.68;30.63;;;;;;;;;;4919622;29;20047;-54
2023/03/16 00:50:03;;;;;;;92.07;29.17;;;;;;;;;;4925254;29;20044;-56
2023/03/16 00:52:30;;;;;;;100.78;27.67;;;;;;;;;;4925997;29;20396;-55
2023/03/16 00:54:57;;;;;;;90.57;28.77;;;;;;;;;;4921570;29;20055;-53
2023/03/16 00:57:26;;;;;;;103.80;28.10;;;;;;;;;;4922233;29;20155;-55
2023/03/16 00:59:54;;;;;;;88.78;27.63;;;;;;;;;;4925219;29;20048;-57
2023/03/16 01:02:23;;;;;;;129.90;31.90;;;;;;;;;;4925928;29;20054;-53
2023/03/16 01:04:50;;;;;;;118.30;30.77;;;;;;;;;;4924064;29;20497;-56
2023/03/16 01:07:17;;;;;;;98.53;29.80;;;;;;;;;;4923716;29;20059;-51
2023/03/16 01:09:44;;;;;;;127.05;29.50;;;;;;;;;;4918104;29;20054;-54
2023/03/16 01:12:12;;;;;;;93.88;29.20;;;;;;;;;;4924079;29;20056;-55
2023/03/16 01:14:38;;;;;;;97.95;27.73;;;;;;;;;;4925554;29;20064;-56
2023/03/16 01:17:07;;;;;;;125.93;30.60;;;;;;;;;;4938415;29;20047;-54
2023/03/16 01:19:35;;;;;;;122.38;30.83;;;;;;;;;;4922790;29;20060;-54
2023/03/16 01:22:03;;;;;;;94.97;30.70;;;;;;;;;;4929535;29;20517;-52
2023/03/16 01:24:30;;;;;;;114.95;30.70;;;;;;;;;;4923329;29;20048;-55
2023/03/16 01:26:58;;;;;;;116.25;31.02;;;;;;;;;;4923307;29;20118;-55
2023/03/16 01:29:25;;;;;;;110.78;30.30;;;;;;;;;;4926554;29;20050;-56
2023/03/16 01:31:54;;;;;;;157.30;34.92;;;;;;;;;;4925174;29;20134;-52
2023/03/16 01:34:21;;;;;;;108.20;30.80;;;;;;;;;;4904338;29;20072;-56
2023/03/16 01:36:48;;;;;;;118.20;30.23;;;;;;;;;;4924857;29;20040;-55
2023/03/16 01:39:23;;;;;;;127.40;31.27;;;;;;;;;;4920679;29;20047;-54
2023/03/16 01:41:49;;;;;;;139.55;31.95;;;;;;;;;;4925911;29;20052;-55
2023/03/16 01:44:21;;;;;;;98.15;31.83;;;;;;;;;;4925046;29;20051;-55
2023/03/16 01:46:48;;;;;;;123.43;30.25;;;;;;;;;;4924432;29;20093;-56
2023/03/16 01:49:24;;;;;;;117.93;30.40;;;;;;;;;;4917731;29;20513;-48
2023/03/16 01:51:55;;;;;;;133.57;32.15;;;;;;;;;;4922642;29;20413;-45
2023/03/16 01:54:34;;;;;;;150.25;33.95;;;;;;;;;;4917141;29;20049;-46
2023/03/16 01:57:04;;;;;;;140.18;32.30;;;;;;;;;;4919975;29;20099;-46
2023/03/16 01:59:41;;;;;;;102.13;29.83;;;;;;;;;;4923379;29;20037;-47
2023/03/16 02:02:10;;;;;;;102.38;30.25;;;;;;;;;;4938244;29;20052;-46
2023/03/16 02:04:49;;;;;;;138.73;30.92;;;;;;;;;;4924125;29;20050;-47
2023/03/16 02:07:19;;;;;;;110.57;31.08;;;;;;;;;;4926478;29;20054;-48
2023/03/16 02:09:48;;;;;;;173.45;34.50;;;;;;;;;;4922750;29;20059;-47
2023/03/16 02:12:18;;;;;;;131.75;29.83;;;;;;;;;;4937686;29;20501;-46
2023/03/16 02:14:52;;;;;;;117.50;29.88;;;;;;;;;;4922284;29;20131;-46
2023/03/16 02:17:26;;;;;;;123.40;30.08;;;;;;;;;;4924485;29;20038;-46
2023/03/16 02:19:59;;;;;;;131.38;30.13;;;;;;;;;;4923517;29;20605;-47
2023/03/16 02:22:26;;;;;;;129.73;32.25;;;;;;;;;;4925637;29;20052;-48
2023/03/16 02:24:53;;;;;;;156.40;32.38;;;;;;;;;;4921203;29;20048;-46
2023/03/16 02:27:25;;;;;;;92.50;29.15;;;;;;;;;;4920243;29;20415;-50
2023/03/16 02:30:05;;;;;;;141.52;33.80;;;;;;;;;;4918381;29;20040;-48
2023/03/16 02:32:38;;;;;;;105.68;31.70;;;;;;;;;;4923702;29;20063;-47
2023/03/16 02:35:06;;;;;;;126.90;30.63;;;;;;;;;;4921616;29;20047;-48
2023/03/16 02:37:33;;;;;;;99.70;28.80;;;;;;;;;;4922568;29;20553;-45
2023/03/16 02:40:12;;;;;;;105.72;28.98;;;;;;;;;;4921522;29;20052;-49
2023/03/16 02:42:38;;;;;;;108.68;28.88;;;;;;;;;;4920569;29;20040;-46
2023/03/16 02:45:05;;;;;;;97.22;25.98;;;;;;;;;;4920839;29;20777;-47
2023/03/16 02:47:41;;;;;;;134.80;28.65;;;;;;;;;;4920172;29;20052;-46
2023/03/16 02:50:09;;;;;;;154.00;31.75;;;;;;;;;;4922672;29;20539;-53
2023/03/16 02:52:36;;;;;;;92.97;28.13;;;;;;;;;;4916505;29;20044;-56
2023/03/16 02:55:04;;;;;;;132.32;28.25;;;;;;;;;;4924834;29;20497;-51
2023/03/16 02:57:31;;;;;;;105.47;27.63;;;;;;;;;;4922035;29;20047;-56
2023/03/16 03:00:17;;;;;;;113.32;26.85;;;;;;;;;;4917098;29;20040;-53
2023/03/16 03:02:47;;;;;;;108.95;25.80;;;;;;;;;;4939049;29;20103;-55
2023/03/16 03:05:14;;;;;;;107.38;26.55;;;;;;;;;;4923735;29;20079;-53
2023/03/16 03:07:40;;;;;;;115.22;25.98;;;;;;;;;;4932964;29;20055;-55
2023/03/16 03:10:07;;;;;;;124.75;28.70;;;;;;;;;;4922384;29;20079;-52
2023/03/16 03:12:34;;;;;;;109.00;28.75;;;;;;;;;;4897975;29;20055;-55
2023/03/16 03:15:04;;;;;;;121.32;28.13;;;;;;;;;;4917079;29;20103;-54
2023/03/16 03:17:38;;;;;;;117.18;28.15;;;;;;;;;;4920216;29;20103;-55
2023/03/16 03:20:12;;;;;;;115.35;27.20;;;;;;;;;;4921910;29;20139;-55
2023/03/16 03:22:39;;;;;;;95.00;24.42;;;;;;;;;;4918742;29;20052;-52
2023/03/16 03:25:06;;;;;;;121.60;27.63;;;;;;;;;;4920844;29;20047;-55
2023/03/16 03:27:32;;;;;;;113.35;28.13;;;;;;;;;;4913040;29;20074;-53
2023/03/16 03:30:05;;;;;;;100.50;25.70;;;;;;;;;;4923515;29;20048;-56
2023/03/16 03:32:31;;;;;;;96.80;24.60;;;;;;;;;;4926429;29;20132;-54
2023/03/16 03:34:58;;;;;;;122.07;25.77;;;;;;;;;;4930110;29;20082;-54
2023/03/16 03:37:24;;;;;;;88.93;25.00;;;;;;;;;;4917842;29;20497;-53
2023/03/16 03:39:52;;;;;;;105.85;25.42;;;;;;;;;;4921697;29;20115;-56
2023/03/16 03:42:22;;;;;;;115.60;26.00;;;;;;;;;;4917133;29;20051;-55
2023/03/16 03:44:52;;;;;;;98.43;24.52;;;;;;;;;;4922178;29;20048;-55
2023/03/16 03:47:19;;;;;;;93.75;23.75;;;;;;;;;;4920880;29;20156;-55
2023/03/16 03:49:46;;;;;;;151.00;27.30;;;;;;;;;;4929765;29;20036;-58
2023/03/16 03:52:12;;;;;;;139.13;27.45;;;;;;;;;;4934855;29;20519;-48
2023/03/16 03:54:39;;;;;;;72.65;22.10;;;;;;;;;;4921702;29;20052;-46
2023/03/16 03:57:11;;;;;;;112.95;25.00;;;;;;;;;;4920731;29;20043;-46
2023/03/16 03:59:42;;;;;;;92.15;24.40;;;;;;;;;;4923631;29;20596;-47
2023/03/16 04:02:09;;;;;;;102.32;25.40;;;;;;;;;;4922733;29;20040;-47
2023/03/16 04:04:41;;;;;;;96.57;23.85;;;;;;;;;;4899595;29;20525;-47
2023/03/16 04:07:10;;;;;;;73.50;22.52;;;;;;;;;;4919861;29;20051;-47
2023/03/16 04:09:37;;;;;;;124.38;25.20;;;;;;;;;;4921625;29;20046;-46
2023/03/16 04:12:05;;;;;;;89.95;24.50;;;;;;;;;;4923656;29;20055;-48
2023/03/16 04:14:32;;;;;;;96.28;22.98;;;;;;;;;;4925131;29;20099;-47
2023/03/16 04:17:03;;;;;;;112.72;24.95;;;;;;;;;;4922032;29;20612;-48
2023/03/16 04:19:32;;;;;;;102.90;24.48;;;;;;;;;;4922065;29;20541;-48
2023/03/16 04:21:59;;;;;;;77.30;23.13;;;;;;;;;;4920371;29;20052;-46
2023/03/16 04:24:25;;;;;;;107.38;24.90;;;;;;;;;;4919814;29;20593;-47
2023/03/16 04:26:53;;;;;;;141.25;25.80;;;;;;;;;;4920569;29;20043;-48
2023/03/16 04:29:19;;;;;;;97.07;25.10;;;;;;;;;;4918409;29;20509;-47
2023/03/16 04:31:46;;;;;;;137.98;26.90;;;;;;;;;;4921014;29;20055;-46
2023/03/16 04:34:13;;;;;;;103.13;25.15;;;;;;;;;;4920439;29;20111;-47
2023/03/16 04:36:40;;;;;;;99.78;23.40;;;;;;;;;;4922892;29;20060;-46
2023/03/16 04:39:09;;;;;;;115.95;25.92;;;;;;;;;;4937731;29;20055;-46
2023/03/16 04:41:35;;;;;;;145.35;26.80;;;;;;;;;;4917537;29;20573;-46
2023/03/16 04:44:10;;;;;;;104.82;24.70;;;;;;;;;;4936398;29;20446;-48
2023/03/16 04:46:37;;;;;;;103.22;24.23;;;;;;;;;;4920766;29;20056;-46
2023/03/16 04:49:08;;;;;;;94.07;23.60;;;;;;;;;;4919790;29;20134;-48
2023/03/16 04:51:36;;;;;;;108.63;24.15;;;;;;;;;;4925952;29;20425;-46
2023/03/16 04:54:06;;;;;;;150.52;27.92;;;;;;;;;;4915359;29;20060;-55
2023/03/16 04:56:35;;;;;;;92.10;26.52;;;;;;;;;;4917721;29;22195;-54
2023/03/16 04:59:06;;;;;;;131.50;28.30;;;;;;;;;;4920673;29;20040;-59
2023/03/16 05:01:43;;;;;;;111.28;24.90;;;;;;;;;;4921822;29;20074;-57
2023/03/16 05:04:11;;;;;;;95.63;25.05;;;;;;;;;;4927262;29;20052;-55
2023/03/16 05:06:45;;;;;;;111.97;24.70;;;;;;;;;;4920685;29;20048;-57
2023/03/16 05:09:12;;;;;;;123.22;28.15;;;;;;;;;;4919164;29;20139;-55
2023/03/16 05:11:39;;;;;;;128.30;28.38;;;;;;;;;;4920756;29;20494;-56
2023/03/16 05:14:08;;;;;;;110.35;28.13;;;;;;;;;;4922472;29;20082;-55
2023/03/16 05:16:48;;;;;;;114.82;28.73;;;;;;;;;;4916789;29;20513;-56
2023/03/16 05:19:15;;;;;;;121.15;28.15;;;;;;;;;;4922800;29;20055;-57
2023/03/16 05:21:42;;;;;;;113.55;29.50;;;;;;;;;;4918482;29;20044;-55
2023/03/16 05:24:08;;;;;;;103.93;27.67;;;;;;;;;;4920519;29;20059;-54
2023/03/16 05:26:35;;;;;;;133.88;30.75;;;;;;;;;;4916706;29;20124;-57
2023/03/16 05:29:05;;;;;;;90.20;25.10;;;;;;;;;;4920575;29;20056;-55
2023/03/16 05:31:31;;;;;;;89.10;26.98;;;;;;;;;;4918641;29;20143;-56
2023/03/16 05:34:01;;;;;;;94.13;30.15;;;;;;;;;;4920538;29;20079;-53
2023/03/16 05:36:27;;;;;;;112.03;35.95;;;;;;;;;;4927843;29;20036;-54
2023/03/16 05:38:59;;;;;;;126.15;34.72;;;;;;;;;;4924155;29;20046;-50
2023/03/16 05:41:35;;;;;;;134.73;34.63;;;;;;;;;;4922595;29;20104;-53
2023/03/16 05:44:23;;;;;;;134.90;30.40;;;;;;;;;;4924767;29;20059;-55
2023/03/16 05:47:12;;;;;;;91.15;25.30;;;;;;;;;;4931755;29;20099;-56
2023/03/16 05:49:44;;;;;;;146.48;28.35;;;;;;;;;;4921762;29;20071;-53
2023/03/16 05:52:20;;;;;;;75.93;20.58;;;;;;;;;;4941309;29;20048;-55
2023/03/16 05:54:46;;;;;;;103.97;24.20;;;;;;;;;;4922573;29;20052;-51
2023/03/16 05:57:13;;;;;;;94.97;22.55;;;;;;;;;;4920845;29;20088;-52
2023/03/16 05:59:42;;;;;;;74.75;19.83;;;;;;;;;;4923917;29;20051;-53
2023/03/16 06:02:10;;;;;;;95.68;20.90;;;;;;;;;;4923795;29;20036;-55
2023/03/16 06:04:37;;;;;;;94.00;20.48;;;;;;;;;;4923199;29;20098;-54
2023/03/16 06:07:03;;;;;;;65.25;18.25;;;;;;;;;;4924532;29;20631;-54
2023/03/16 06:09:30;;;;;;;79.50;20.33;;;;;;;;;;4940473;29;20051;-55
2023/03/16 06:11:57;;;;;;;115.82;22.35;;;;;;;;;;4919852;29;20139;-50
2023/03/16 06:14:24;;;;;;;73.97;18.83;;;;;;;;;;4923292;29;20107;-56
2023/03/16 06:16:52;;;;;;;119.03;21.25;;;;;;;;;;4922362;29;20041;-47
2023/03/16 06:19:20;;;;;;;71.15;18.05;;;;;;;;;;4917247;29;20048;-46
2023/03/16 06:21:51;;;;;;;113.13;19.23;;;;;;;;;;4924308;29;20044;-47
2023/03/16 06:24:18;;;;;;;119.20;20.88;;;;;;;;;;4923083;29;20095;-49
2023/03/16 06:26:44;;;;;;;77.53;17.85;;;;;;;;;;4921444;29;20032;-46
2023/03/16 06:29:12;;;;;;;84.50;19.20;;;;;;;;;;4919331;29;20064;-47
2023/03/16 06:31:39;;;;;;;91.13;19.30;;;;;;;;;;4922587;29;20477;-47
2023/03/16 06:34:06;;;;;;;68.13;17.02;;;;;;;;;;4926484;29;20048;-46
2023/03/16 06:36:33;;;;;;;69.55;16.40;;;;;;;;;;4924400;29;20516;-46
2023/03/16 06:39:03;;;;;;;94.78;19.17;;;;;;;;;;4929261;29;20040;-47
2023/03/16 06:41:41;;;;;;;69.45;17.23;;;;;;;;;;4917893;29;20055;-47
2023/03/16 06:44:10;;;;;;;78.95;16.73;;;;;;;;;;4933486;29;20054;-48
2023/03/16 06:46:43;;;;;;;;;;;;;;;;;;4921629;29;20055;-46
2023/03/16 06:49:09;;;;;;;85.72;19.17;;;;;;;;;;4926141;29;19922;-46
2023/03/16 06:51:37;;;;;;;103.03;18.92;;;;;;;;;;4917071;29;20070;-48
2023/03/16 06:54:03;;;;;;;84.38;17.98;;;;;;;;;;4921796;29;20050;-47
2023/03/16 06:56:32;;;;;;;65.60;16.75;;;;;;;;;;4922763;29;20039;-46
2023/03/16 06:58:58;;;;;;;113.88;18.98;;;;;;;;;;4924480;29;20040;-46
2023/03/16 07:01:25;;;;;;;76.25;16.00;;;;;;;;;;4937036;28;20055;-46
2023/03/16 07:03:52;;;;;;;73.43;15.85;;;;;;;;;;4924007;29;20449;-46
2023/03/16 07:06:23;;;;;;;102.13;18.25;;;;;;;;;;4926686;29;20521;-47
2023/03/16 07:08:50;;;;;;;79.68;14.57;;;;;;;;;;4919543;29;20123;-46
2023/03/16 07:11:18;;;;;;;70.30;14.98;;;;;;;;;;4919115;29;20040;-46
2023/03/16 07:13:45;;;;;;;102.55;16.08;;;;;;;;;;4917875;29;20050;-49
2023/03/16 07:16:14;;;;;;;65.40;13.20;;;;;;;;;;4912804;29;20139;-47
2023/03/16 07:18:43;;;;;;;58.33;12.65;;;;;;;;;;4923259;29;20058;-57
2023/03/16 07:21:13;;;;;;;94.38;14.43;;;;;;;;;;4917116;29;20059;-56
2023/03/16 07:23:39;;;;;;;61.97;12.20;;;;;;;;;;4919333;29;20512;-54
2023/03/16 07:26:07;;;;;;;60.53;12.32;;;;;;;;;;4921616;29;20148;-56
2023/03/16 07:28:38;;;;;;;53.17;10.93;;;;;;;;;;4934729;29;20059;-56
2023/03/16 07:31:06;;;;;;;57.22;10.85;;;;;;;;;;4922257;29;20043;-55
2023/03/16 07:33:37;;;;;;;74.85;12.98;;;;;;;;;;4922024;29;20039;-56
2023/03/16 07:36:08;;;;;;;43.88;10.75;;;;;;;;;;4927530;29;20044;-55
2023/03/16 07:38:38;;;;;;;53.70;11.23;;;;;;;;;;4916153;29;20048;-55
2023/03/16 07:41:05;;;;;;;100.45;13.90;;;;;;;;;;4922301;29;20078;-56
2023/03/16 07:43:33;;;;;;;46.83;10.73;;;;;;;;;;4918766;29;20082;-56
2023/03/16 07:46:00;;;;;;;56.53;10.10;;;;;;;;;;4922126;29;20063;-57
2023/03/16 07:48:27;;;;;;;75.85;10.95;;;;;;;;;;4923432;29;20188;-56
2023/03/16 07:50:58;;;;;;;55.55;11.77;;;;;;;;;;4920007;29;20043;-55
2023/03/16 07:53:25;;;;;;;52.90;9.40;;;;;;;;;;4920983;29;20186;-55
2023/03/16 07:56:06;;;;;;;84.82;12.13;;;;;;;;;;4919257;29;20052;-53
2023/03/16 07:58:35;;;;;;;51.97;10.70;;;;;;;;;;4918328;29;20527;-57
2023/03/16 08:01:02;;;;;;;69.65;10.18;;;;;;;;;;4920507;29;20466;-58
2023/03/16 08:03:30;;;;;;;49.22;9.25;;;;;;;;;;4919971;29;20055;-55
2023/03/16 08:05:57;;;;;;;63.08;10.05;;;;;;;;;;4910345;29;20100;-54
2023/03/16 08:08:25;;;;;;;83.80;11.70;;;;;;;;;;4921049;29;20043;-54
2023/03/16 08:10:52;;;;;;;69.13;10.68;;;;;;;;;;4919956;29;20387;-54
2023/03/16 08:13:26;;;;;;;42.67;9.48;;;;;;;;;;4932228;28;20134;-56
2023/03/16 08:15:57;;;;;;;83.10;11.93;;;;;;;;;;4919212;29;20052;-52
2023/03/16 08:18:35;;;;;;;51.25;8.63;;;;;;;;;;4937113;28;20461;-55
2023/03/16 08:21:02;;;;;;;342.08;41.22;;;;;;;;;;4920777;29;20048;-55
2023/03/16 08:23:32;;;;;;;80.00;11.48;;;;;;;;;;4920671;29;20499;-56
2023/03/16 08:25:59;;;;;;;78.97;10.80;;;;;;;;;;4919514;29;20059;-56
2023/03/16 08:28:26;;;;;;;68.78;10.07;;;;;;;;;;4913399;29;20127;-55
2023/03/16 08:30:54;;;;;;;54.22;8.77;;;;;;;;;;4920743;29;20575;-55
2023/03/16 08:33:48;;;;;;;76.82;9.90;;;;;;;;;;4916498;29;20260;-54
2023/03/16 08:36:19;;;;;;;66.88;9.15;;;;;;;;;;4920649;29;20470;-54
2023/03/16 08:38:50;;;;;;;70.93;9.85;;;;;;;;;;4921744;29;20047;-56
2023/03/16 08:41:36;;;;;;;85.03;10.10;;;;;;;;;;4936286;29;20050;-56
2023/03/16 08:44:07;;;;;;;94.93;10.77;;;;;;;;;;4917482;29;20051;-56
2023/03/16 08:46:34;;;;;;;42.28;7.47;;;;;;;;;;4922592;29;20052;-57
2023/03/16 08:49:01;;;;;;;52.47;8.18;;;;;;;;;;4921407;29;20059;-57
2023/03/16 08:51:28;;;;;;;81.40;10.80;;;;;;;;;;4917765;29;20048;-56
2023/03/16 08:53:54;;;;;;;82.45;10.32;;;;;;;;;;4925683;29;20051;-56
2023/03/16 08:56:21;;;;;;;61.25;8.68;;;;;;;;;;4922454;29;20466;-55
2023/03/16 08:58:48;;;;;;;66.55;9.13;;;;;;;;;;4916814;29;20516;-56
2023/03/16 09:01:19;;;;;;;45.55;7.72;;;;;;;;;;4920289;29;20047;-57
2023/03/16 09:03:45;;;;;;;60.47;8.63;;;;;;;;;;4922913;29;20050;-54
2023/03/16 09:06:13;;;;;;;59.13;8.60;;;;;;;;;;4919550;29;20044;-57
2023/03/16 09:08:40;;;;;;;39.15;7.03;;;;;;;;;;4922281;29;20056;-53
2023/03/16 09:11:14;;;;;;;82.65;9.60;;;;;;;;;;4924795;29;20079;-47
2023/03/16 09:13:41;;;;;;;103.60;11.77;;;;;;;;;;4914997;29;20130;-46
2023/03/16 09:16:08;;;;;;;42.42;6.90;;;;;;;;;;4928429;29;20072;-47
2023/03/16 09:18:35;;;;;;;42.67;6.93;;;;;;;;;;4926568;29;20608;-47
2023/03/16 09:21:04;;;;;;;85.50;9.23;;;;;;;;;;4923467;29;20616;-46
2023/03/16 09:23:30;;;;;;;51.25;8.20;;;;;;;;;;4925097;29;20036;-47
2023/03/16 09:26:00;;;;;;;65.50;8.18;;;;;;;;;;4926030;29;20052;-47
2023/03/16 09:28:28;;;;;;;57.85;7.43;;;;;;;;;;4926769;29;20098;-46
2023/03/16 09:30:55;;;;;;;50.33;6.57;;;;;;;;;;4925703;29;20051;-46
2023/03/16 09:33:23;;;;;;;44.58;7.55;;;;;;;;;;4924291;29;20390;-47
2023/03/16 09:35:50;;;;;;;73.45;9.10;;;;;;;;;;4923867;29;20047;-48
2023/03/16 09:38:17;;;;;;;75.68;9.65;;;;;;;;;;4923778;29;20573;-46
2023/03/16 09:40:45;;;;;;;37.05;7.25;;;;;;;;;;4927013;29;20059;-49
2023/03/16 09:43:31;;;;;;;70.00;8.25;;;;;;;;;;4922137;29;20047;-45
2023/03/16 09:45:58;;;;;;;75.10;9.43;;;;;;;;;;4920824;29;20043;-46
2023/03/16 09:48:28;;;;;;;88.38;9.90;;;;;;;;;;4925287;29;20058;-50
2023/03/16 09:50:55;;;;;;;58.05;8.32;;;;;;;;;;4924500;29;20405;-47
2023/03/16 09:53:40;;;;;;;41.58;7.55;;;;;;;;;;4925135;29;20122;-46
2023/03/16 09:56:13;;;;;;;51.15;7.75;;;;;;;;;;4924347;29;20052;-46
2023/03/16 09:58:40;;;;;;;38.63;6.37;;;;;;;;;;4923861;29;20070;-47
2023/03/16 10:01:09;;;;;;;55.03;7.75;;;;;;;;;;4919749;29;20866;-48
2023/03/16 10:03:39;;;;;;;58.08;7.82;;;;;;;;;;4925253;29;20054;-47
2023/03/16 10:06:11;;;;;;;80.65;9.05;;;;;;;;;;4922906;29;20131;-47
2023/03/16 10:08:39;;;;;;;44.35;6.90;;;;;;;;;;4925101;29;20533;-48
2023/03/16 10:11:08;;;;;;;79.43;8.45;;;;;;;;;;4921800;29;20052;-47
2023/03/16 10:13:51;;;;;;;106.60;11.07;;;;;;;;;;4926043;29;20039;-56
2023/03/16 10:16:29;;;;;;;44.97;7.63;;;;;;;;;;4917938;29;20048;-56
2023/03/16 10:18:59;;;;;;;72.60;9.85;;;;;;;;;;4922117;29;20036;-55
2023/03/16 10:21:26;;;;;;;44.33;7.88;;;;;;;;;;4923541;29;20450;-54
2023/03/16 10:23:57;;;;;;;42.38;7.57;;;;;;;;;;4924987;29;20066;-57
2023/03/16 10:26:27;;;;;;;54.92;8.45;;;;;;;;;;4925282;29;20083;-55
2023/03/16 10:28:53;;;;;;;71.90;9.57;;;;;;;;;;4925300;29;20508;-56
2023/03/16 10:31:21;;;;;;;53.95;8.27;;;;;;;;;;4923179;29;20055;-55
2023/03/16 10:33:51;;;;;;;52.10;9.25;;;;;;;;;;4923628;29;20431;-56
2023/03/16 10:36:24;;;;;;;65.63;8.43;;;;;;;;;;4923032;29;20515;-54
2023/03/16 10:38:58;;;;;;;94.68;10.85;;;;;;;;;;4924838;29;20120;-56
2023/03/16 10:41:28;;;;;;;43.47;6.95;;;;;;;;;;4922657;29;20052;-55
2023/03/16 10:44:07;;;;;;;75.88;9.05;;;;;;;;;;4922424;29;20043;-55
2023/03/16 10:46:38;;;;;;;35.70;6.70;;;;;;;;;;4921577;29;20470;-53
2023/03/16 10:49:05;;;;;;;40.15;6.45;;;;;;;;;;4929893;29;20058;-57
2023/03/16 10:51:33;;;;;;;62.10;7.63;;;;;;;;;;4924800;29;20037;-57
2023/03/16 10:54:06;;;;;;;44.53;6.20;;;;;;;;;;4923405;29;20069;-55
2023/03/16 10:56:34;;;;;;;51.83;7.15;;;;;;;;;;4922701;29;20037;-56
2023/03/16 10:59:01;;;;;;;65.15;8.30;;;;;;;;;;4923774;29;20048;-56
2023/03/16 11:01:28;;;;;;;36.63;6.10;;;;;;;;;;4921538;29;20044;-54
2023/03/16 11:03:56;;;;;;;80.55;9.13;;;;;;;;;;4926575;29;20501;-56
2023/03/16 11:06:30;;;;;;;43.42;6.82;;;;;;;;;;4922481;29;20079;-52
2023/03/16 11:09:11;;;;;;;56.22;7.43;;;;;;;;;;4921974;29;20107;-55
2023/03/16 11:11:37;;;;;;;51.80;6.80;;;;;;;;;;4921362;29;20050;-55
2023/03/16 11:14:10;;;;;;;50.65;7.15;;;;;;;;;;4923923;29;20055;-56
2023/03/16 11:16:45;;;;;;;49.97;6.77;;;;;;;;;;4918349;29;20055;-56
2023/03/16 11:19:18;;;;;;;47.95;6.82;;;;;;;;;;4920631;29;20291;-54
2023/03/16 11:21:45;;;;;;;57.60;6.57;;;;;;;;;;4922753;29;20130;-54
2023/03/16 11:24:22;;;;;;;62.05;8.18;;;;;;;;;;4924921;29;20039;-54
2023/03/16 11:26:53;;;;;;;55.60;7.00;;;;;;;;;;4920563;29;20044;-55
2023/03/16 11:29:34;;;;;;;72.82;8.38;;;;;;;;;;4922405;29;20046;-58
2023/03/16 11:32:06;;;;;;;56.03;7.15;;;;;;;;;;4921427;29;20051;-55
2023/03/16 11:34:34;;;;;;;75.95;8.45;;;;;;;;;;4921571;29;20058;-53
2023/03/16 11:37:20;;;;;;;43.00;5.50;;;;;;;;;;4924674;29;20047;-57
2023/03/16 11:39:59;;;;;;;95.35;8.57;;;;;;;;;;4915239;29;20592;-46
2023/03/16 11:42:40;;;;;;;51.00;5.82;;;;;;;;;;4922775;29;20438;-45
2023/03/16 11:45:12;;;;;;;112.55;9.68;;;;;;;;;;4916521;29;20044;-46
2023/03/16 11:47:42;;;;;;;48.53;5.35;;;;;;;;;;4921702;29;20520;-46
2023/03/16 11:50:11;;;;;;;78.88;7.57;;;;;;;;;;4923542;29;20397;-47
2023/03/16 11:52:40;;;;;;;43.28;4.63;;;;;;;;;;4922398;29;20075;-48
2023/03/16 11:55:25;;;;;;;46.08;4.97;;;;;;;;;;4920513;29;20090;-45
2023/03/16 11:58:01;;;;;;;51.30;5.38;;;;;;;;;;4925746;29;20046;-46
2023/03/16 12:00:46;;;;;;;50.70;5.03;;;;;;;;;;4922313;29;20155;-47
2023/03/16 12:03:30;;;;;;;59.38;5.65;;;;;;;;;;4920604;29;20497;-46
2023/03/16 12:06:06;;;;;;;44.33;4.93;;;;;;;;;;4919201;29;20131;-48
2023/03/16 12:09:12;;;;;;;50.33;4.95;;;;;;;;;;4923917;29;20044;-47
2023/03/16 12:11:46;;;;;;;54.40;5.30;;;;;;;;;;4922755;29;20130;-47
2023/03/16 12:14:14;;;;;;;44.47;4.88;;;;;;;;;;4922898;29;20043;-46
2023/03/16 12:17:10;;;;;;;50.53;5.10;;;;;;;;;;4915813;29;20048;-47
2023/03/16 12:19:37;;;;;;;74.20;7.03;;;;;;;;;;4909980;29;20060;-47
2023/03/16 12:22:12;;;;;;;39.70;5.07;;;;;;;;;;4923214;29;20048;-47
2023/03/16 12:24:41;;;;;;;51.67;5.28;;;;;;;;;;4923452;29;20513;-47
2023/03/16 12:27:14;;;;;;;79.15;6.90;;;;;;;;;;4919328;29;20043;-45
2023/03/16 12:29:49;;;;;;;74.55;6.55;;;;;;;;;;4916297;29;20047;-46
2023/03/16 12:32:39;;;;;;;71.32;7.15;;;;;;;;;;4921082;29;20430;-48
2023/03/16 12:35:16;;;;;;;88.90;7.88;;;;;;;;;;4861585;29;20057;-45
2023/03/16 12:37:49;;;;;;;85.32;8.32;;;;;;;;;;4860694;29;20057;-46
2023/03/16 12:40:17;;;;;;;49.70;6.55;;;;;;;;;;4860803;29;20066;-46
2023/03/16 12:42:47;;;;;;;46.75;6.10;;;;;;;;;;4855147;29;20057;-56
2023/03/16 12:45:26;;;;;;;62.33;6.60;;;;;;;;;;4866458;29;20056;-55
2023/03/16 12:47:56;;;;;;;59.03;6.93;;;;;;;;;;4864842;29;20048;-57
2023/03/16 12:50:24;;;;;;;70.68;6.85;;;;;;;;;;4867059;29;20177;-56
2023/03/16 12:52:51;;;;;;;57.10;6.70;;;;;;;;;;4867419;29;20060;-56
2023/03/16 12:55:19;;;;;;;45.47;6.63;;;;;;;;;;4866438;29;20187;-58
2023/03/16 12:57:47;;;;;;;83.85;9.10;;;;;;;;;;4867750;29;20499;-55
2023/03/16 13:00:15;;;;;;;64.90;7.75;;;;;;;;;;4862106;29;20563;-53
2023/03/16 13:02:43;;;;;;;51.38;6.72;;;;;;;;;;4864413;29;20038;-54
2023/03/16 13:05:12;;;;;;;76.13;8.55;;;;;;;;;;4864455;29;20140;-53
2023/03/16 13:07:51;;;;;;;69.65;8.23;;;;;;;;;;4868347;29;20136;-52
2023/03/16 13:10:19;;;;;;;95.63;9.02;;;;;;;;;;4870056;29;20045;-55
2023/03/16 13:12:46;;;;;;;50.60;5.97;;;;;;;;;;4907685;29;20058;-41
2023/03/16 13:15:16;;;;;;;117.00;9.00;;;;;;;;;;4919920;29;20046;-53
2023/03/16 13:17:43;;;;;;;77.10;8.10;;;;;;;;;;4923573;29;20127;-53
2023/03/16 13:20:12;;;;;;;66.05;6.80;;;;;;;;;;4925088;29;20063;-53
2023/03/16 13:23:08;;;;;;;74.18;8.20;;;;;;;;;;4926996;29;20048;-56
2023/03/16 13:25:41;;;;;;;55.38;7.75;;;;;;;;;;4925627;29;20059;-54
2023/03/16 13:28:15;;;;;;;79.03;8.60;;;;;;;;;;4922890;29;20047;-56
2023/03/16 13:30:43;;;;;;;55.30;7.60;;;;;;;;;;4926503;29;20102;-56
2023/03/16 13:33:24;;;;;;;63.40;7.78;;;;;;;;;;4920606;29;20052;-55
2023/03/16 13:35:51;;;;;;;48.83;6.80;;;;;;;;;;4918210;29;20098;-54
2023/03/16 13:38:21;;;;;;;53.67;7.00;;;;;;;;;;4923764;29;20035;-53
2023/03/16 13:40:49;;;;;;;100.88;10.50;;;;;;;;;;4925218;29;20055;-54
2023/03/16 13:43:16;;;;;;;73.38;8.38;;;;;;;;;;4926702;29;20040;-56
2023/03/16 13:45:43;;;;;;;57.53;7.07;;;;;;;;;;4925489;29;20636;-54
2023/03/16 13:48:10;;;;;;;79.82;8.07;;;;;;;;;;4922837;29;20116;-52
2023/03/16 13:50:40;;;;;;;43.85;6.03;;;;;;;;;;4922499;29;20421;-57
2023/03/16 13:53:18;;;;;;;77.47;8.15;;;;;;;;;;4921288;29;20048;-55
2023/03/16 13:55:46;;;;;;;71.05;7.32;;;;;;;;;;4925413;29;20506;-52
2023/03/16 13:58:19;;;;;;;74.75;7.47;;;;;;;;;;4922908;29;20043;-56
2023/03/16 14:00:46;;;;;;;77.35;8.05;;;;;;;;;;4917042;29;20053;-53
2023/03/16 14:03:16;;;;;;;57.30;6.88;;;;;;;;;;4915955;29;20044;-56
2023/03/16 14:05:43;;;;;;;70.88;7.68;;;;;;;;;;4923897;29;20133;-54
2023/03/16 14:08:22;;;;;;;112.85;9.90;;;;;;;;;;4924368;29;20138;-54
2023/03/16 14:10:49;;;;;;;62.13;7.00;;;;;;;;;;4923156;29;20051;-55
2023/03/16 14:13:22;;;;;;;72.60;7.60;;;;;;;;;;4922104;29;20055;-56
2023/03/16 14:15:49;;;;;;;64.95;6.93;;;;;;;;;;4924620;29;20480;-56
2023/03/16 14:18:20;;;;;;;64.65;7.28;;;;;;;;;;4926498;29;20032;-54
2023/03/16 14:20:54;;;;;;;60.47;6.97;;;;;;;;;;4921414;29;20512;-57
2023/03/16 14:23:27;;;;;;;70.90;7.40;;;;;;;;;;4923640;29;20039;-54
2023/03/16 14:25:54;;;;;;;93.25;10.15;;;;;;;;;;4921568;29;20055;-52
2023/03/16 14:28:25;;;;;;;58.72;7.78;;;;;;;;;;4939499;29;20051;-55
2023/03/16 14:30:53;;;;;;;44.05;5.55;;;;;;;;;;4927475;29;20046;-55
2023/03/16 14:33:31;;;;;;;71.30;7.30;;;;;;;;;;4920184;29;20465;-53
2023/03/16 14:35:58;;;;;;;95.20;9.52;;;;;;;;;;4923638;29;20118;-53